Time;durP1;ratioP1;P1;durP2;ratioP2;P2;SDS_P1;SDS_P2;PMS_P1;PMS_P2;Temp;Humidity;BMP_temperature;BMP_pressure;BME280_temperature;BME280_humidity;BME280_pressure;Samples;Min_cycle;Max_cycle;Signal;HPM_P1;HPM_P2
2023/10/10 00:00:54;;;;;;;20.80;8.03;;;11.80;99.90;;;;;;4970306;28;20460;-73
2023/10/10 00:03:24;;;;;;;22.10;9.33;;;11.70;99.90;;;;;;4968993;28;21010;-73
2023/10/10 00:05:53;;;;;;;21.87;8.27;;;11.70;99.90;;;;;;4970123;28;20446;-74
2023/10/10 00:08:27;;;;;;;19.83;8.80;;;11.60;99.90;;;;;;4970042;28;20451;-71
2023/10/10 00:10:57;;;;;;;16.87;8.17;;;11.60;99.90;;;;;;4970325;28;20452;-72
2023/10/10 00:13:25;;;;;;;19.90;8.40;;;11.60;99.90;;;;;;4969891;28;21055;-71
2023/10/10 00:15:55;;;;;;;16.33;8.40;;;11.60;99.90;;;;;;4970267;28;20450;-72
2023/10/10 00:18:29;;;;;;;21.43;9.00;;;11.50;99.90;;;;;;4969986;28;20445;-71
2023/10/10 00:23:47;;;;;;;20.77;8.90;;;11.40;99.90;;;;;;4969836;28;20565;-70
2023/10/10 00:26:20;;;;;;;18.93;9.40;;;11.30;99.90;;;;;;4970254;28;20465;-69
2023/10/10 00:28:54;;;;;;;19.77;9.17;;;11.30;99.90;;;;;;4970103;28;20589;-69
2023/10/10 00:31:22;;;;;;;20.97;8.70;;;11.30;99.90;;;;;;4969690;28;20487;-70
2023/10/10 00:33:51;;;;;;;22.17;8.80;;;11.40;99.90;;;;;;4969920;28;21016;-68
2023/10/10 00:36:23;;;;;;;20.23;8.10;;;11.30;99.90;;;;;;4966301;28;20458;-69
2023/10/10 00:38:54;;;;;;;24.70;9.13;;;11.30;99.90;;;;;;4969790;28;20835;-67
2023/10/10 00:41:23;;;;;;;20.63;8.73;;;11.30;99.90;;;;;;4969278;28;21197;-68
2023/10/10 00:43:52;;;;;;;19.60;8.53;;;11.40;99.90;;;;;;4969789;28;20475;-68
2023/10/10 00:46:24;;;;;;;22.83;8.70;;;11.30;99.90;;;;;;4969969;28;20454;-69
2023/10/10 00:48:59;;;;;;;20.77;8.00;;;11.30;99.90;;;;;;4969922;28;20541;-67
2023/10/10 00:51:30;;;;;;;22.23;9.27;;;11.20;99.90;;;;;;4969677;28;20454;-69
2023/10/10 00:54:13;;;;;;;22.47;8.30;;;11.20;99.90;;;;;;4968369;28;20491;-68
2023/10/10 00:56:44;;;;;;;18.73;8.10;;;11.10;99.90;;;;;;4969637;28;20446;-70
2023/10/10 00:59:15;;;;;;;20.90;8.70;;;11.10;99.90;;;;;;4969499;28;20449;-69
2023/10/10 01:01:45;;;;;;;20.73;8.07;;;11.00;99.90;;;;;;4972687;28;20484;-68
2023/10/10 01:04:14;;;;;;;18.20;9.03;;;11.10;99.90;;;;;;4973169;28;20969;-69
2023/10/10 01:06:42;;;;;;;23.50;9.27;;;11.10;99.90;;;;;;4972040;28;20477;-70
2023/10/10 01:09:21;;;;;;;19.03;7.80;;;11.10;99.90;;;;;;4973543;28;20476;-71
2023/10/10 01:11:50;;;;;;;20.03;8.80;;;11.20;99.90;;;;;;4973354;28;20445;-70
2023/10/10 01:14:21;;;;;;;21.10;8.63;;;11.20;99.90;;;;;;4973268;28;20991;-69
2023/10/10 01:16:54;;;;;;;19.00;8.17;;;11.10;99.90;;;;;;4973274;28;20582;-70
2023/10/10 01:19:22;;;;;;;17.63;7.63;;;11.10;99.90;;;;;;4973512;28;20451;-69
2023/10/10 01:21:57;;;;;;;20.10;9.53;;;11.10;99.90;;;;;;4972924;28;20467;-69
2023/10/10 01:24:26;;;;;;;20.17;7.80;;;11.10;99.90;;;;;;4966574;28;20473;-71
2023/10/10 01:27:03;;;;;;;17.03;8.30;;;11.10;99.90;;;;;;4973164;28;20442;-71
2023/10/10 01:29:40;;;;;;;19.83;8.23;;;11.00;99.90;;;;;;4973350;28;20458;-68
2023/10/10 01:32:10;;;;;;;21.03;7.87;;;11.00;99.90;;;;;;4971359;28;20465;-68
2023/10/10 01:34:43;;;;;;;18.70;7.80;;;11.10;99.90;;;;;;4972883;28;20485;-68
2023/10/10 01:37:20;;;;;;;21.30;8.87;;;11.10;99.90;;;;;;4973491;28;20490;-71
2023/10/10 01:40:05;;;;;;;18.17;8.53;;;10.90;99.90;;;;;;4972996;28;20908;-69
2023/10/10 01:42:37;;;;;;;24.90;8.27;;;10.90;99.90;;;;;;4972164;28;20555;-69
2023/10/10 01:45:08;;;;;;;20.73;7.87;;;11.00;99.90;;;;;;4973020;28;21027;-69
2023/10/10 01:47:39;;;;;;;20.40;7.33;;;11.00;99.90;;;;;;4972798;28;22030;-70
2023/10/10 01:50:10;;;;;;;19.73;7.63;;;10.90;99.90;;;;;;4972716;28;20448;-69
2023/10/10 01:52:45;;;;;;;19.00;7.57;;;10.90;99.90;;;;;;4971981;28;20484;-72
2023/10/10 01:55:16;;;;;;;16.87;7.03;;;10.90;99.90;;;;;;4968989;28;21070;-69
2023/10/10 01:57:44;;;;;;;18.13;7.17;;;10.80;99.90;;;;;;4965887;28;21252;-71
2023/10/10 02:00:21;;;;;;;18.77;6.87;;;10.80;99.90;;;;;;4972246;28;20441;-70
2023/10/10 02:02:52;;;;;;;21.80;8.80;;;10.80;99.90;;;;;;4970920;28;20487;-69
2023/10/10 02:05:32;;;;;;;19.50;8.60;;;10.80;99.90;;;;;;4972544;28;20440;-70
2023/10/10 02:08:04;;;;;;;19.73;8.07;;;10.90;99.90;;;;;;4969048;28;20548;-69
2023/10/10 02:10:32;;;;;;;17.63;7.37;;;10.80;99.90;;;;;;4970434;28;20447;-69
2023/10/10 02:13:01;;;;;;;19.70;8.33;;;10.80;99.90;;;;;;4972085;28;20470;-67
2023/10/10 02:15:32;;;;;;;21.73;8.57;;;10.70;99.90;;;;;;4972575;28;20492;-69
2023/10/10 02:18:05;;;;;;;20.60;7.40;;;10.70;99.90;;;;;;4966704;28;20440;-68
2023/10/10 02:23:24;;;;;;;21.17;7.50;;;10.70;99.90;;;;;;4972122;28;20985;-70
2023/10/10 02:25:54;;;;;;;19.43;7.63;;;10.60;99.90;;;;;;4972781;28;20851;-69
2023/10/10 02:28:42;;;;;;;19.23;8.20;;;10.60;99.90;;;;;;4972398;28;20436;-69
2023/10/10 02:31:12;;;;;;;20.70;7.30;;;10.70;99.90;;;;;;4971850;28;20453;-69
2023/10/10 02:33:48;;;;;;;20.53;7.03;;;10.70;99.90;;;;;;4972025;28;20488;-69
2023/10/10 02:36:29;;;;;;;26.13;8.40;;;10.60;99.90;;;;;;4972391;28;20487;-70
2023/10/10 02:39:11;;;;;;;20.07;8.27;;;10.50;99.90;;;;;;4972384;28;20440;-72
2023/10/10 02:41:39;;;;;;;18.73;7.17;;;10.40;99.90;;;;;;4971771;28;20540;-71
2023/10/10 02:44:09;;;;;;;18.70;7.00;;;10.40;99.90;;;;;;4972287;28;21041;-70
2023/10/10 02:46:42;;;;;;;18.80;7.50;;;10.40;99.90;;;;;;4971831;28;20442;-72
2023/10/10 02:49:13;;;;;;;18.80;8.10;;;10.40;99.90;;;;;;4971905;28;20453;-69
2023/10/10 02:51:45;;;;;;;20.10;7.40;;;10.30;99.90;;;;;;4971381;28;20499;-69
2023/10/10 02:54:27;;;;;;;17.50;7.20;;;10.20;99.90;;;;;;4971544;28;20468;-69
2023/10/10 02:56:57;;;;;;;26.57;7.73;;;10.20;99.90;;;;;;4971551;28;20533;-71
2023/10/10 02:59:31;;;;;;;25.50;9.13;;;10.20;99.90;;;;;;4971437;28;20455;-69
2023/10/10 03:02:08;;;;;;;20.67;7.60;;;10.10;99.90;;;;;;4970970;28;20452;-70
2023/10/10 03:05:05;;;;;;;19.43;7.50;;;10.10;99.90;;;;;;4971355;28;20450;-69
2023/10/10 03:07:35;;;;;;;19.70;7.73;;;10.00;99.90;;;;;;4971404;28;20936;-69
2023/10/10 03:10:22;;;;;;;19.20;7.93;;;10.00;99.90;;;;;;4971303;28;20944;-69
2023/10/10 03:12:51;;;;;;;23.10;8.30;;;10.10;99.90;;;;;;4971079;28;20477;-69
2023/10/10 03:15:31;;;;;;;26.40;8.33;;;10.10;99.90;;;;;;4970938;28;20905;-69
2023/10/10 03:18:17;;;;;;;19.30;8.73;;;10.00;99.90;;;;;;4971391;28;20523;-69
2023/10/10 03:21:06;;;;;;;22.50;10.10;;;10.00;99.90;;;;;;4970987;28;20950;-69
2023/10/10 03:23:43;;;;;;;19.03;8.00;;;10.00;99.90;;;;;;4970187;28;20486;-69
2023/10/10 03:26:29;;;;;;;20.10;8.60;;;10.10;99.90;;;;;;4971233;28;20446;-71
2023/10/10 03:29:04;;;;;;;20.10;7.40;;;10.10;99.90;;;;;;4971156;28;20467;-70
2023/10/10 03:31:41;;;;;;;17.87;7.47;;;10.10;99.90;;;;;;4970399;28;20993;-70
2023/10/10 03:34:18;;;;;;;18.70;8.10;;;10.00;99.90;;;;;;4970843;28;20519;-70
2023/10/10 03:37:04;;;;;;;24.70;8.43;;;10.00;99.90;;;;;;4970974;28;20490;-69
2023/10/10 05:24:51;;;;;;;18.80;7.90;;;9.50;99.90;;;;;;4969390;28;21009;-71
2023/10/10 05:27:29;;;;;;;18.60;7.83;;;9.50;99.90;;;;;;4969693;28;20481;-70
2023/10/10 05:29:59;;;;;;;18.13;7.67;;;9.50;99.90;;;;;;4968420;28;21041;-73
2023/10/10 05:32:30;;;;;;;25.70;8.23;;;9.40;99.90;;;;;;4968304;28;20455;-70
2023/10/10 05:34:58;;;;;;;19.70;6.97;;;9.30;99.90;;;;;;4961373;28;20458;-71
2023/10/10 05:37:31;;;;;;;16.90;7.43;;;9.30;99.90;;;;;;4973614;28;20525;-73
2023/10/10 05:39:59;;;;;;;14.80;6.40;;;9.40;99.90;;;;;;4962690;28;20486;-72
2023/10/10 05:42:33;;;;;;;18.03;7.77;;;9.60;99.90;;;;;;4968698;28;20475;-72
2023/10/10 05:45:08;;;;;;;16.97;7.83;;;9.60;99.90;;;;;;4980306;28;20446;-69
2023/10/10 05:47:37;;;;;;;19.70;9.80;;;9.60;99.90;;;;;;4981903;28;20437;-69
2023/10/10 05:50:10;;;;;;;20.70;7.70;;;9.60;99.90;;;;;;4983979;28;20477;-72
2023/10/10 05:52:40;;;;;;;20.43;7.93;;;9.60;99.90;;;;;;4971293;28;20489;-69
2023/10/10 05:55:10;;;;;;;20.30;6.70;;;9.60;99.90;;;;;;4978161;28;20841;-69
2023/10/10 05:57:39;;;;;;;21.73;8.93;;;9.60;99.90;;;;;;4981518;28;20489;-70
2023/10/10 06:00:10;;;;;;;21.23;8.23;;;9.50;99.90;;;;;;4980121;28;20466;-73
2023/10/10 06:02:41;;;;;;;22.27;7.30;;;9.50;99.90;;;;;;4981572;28;20479;-69
2023/10/10 06:05:10;;;;;;;15.40;6.20;;;9.60;99.90;;;;;;4983914;28;20451;-72
2023/10/10 06:07:42;;;;;;;17.43;6.63;;;9.70;99.90;;;;;;4982175;28;20475;-69
2023/10/10 06:10:15;;;;;;;19.00;7.20;;;9.80;99.90;;;;;;4972907;28;20451;-69
2023/10/10 06:12:44;;;;;;;20.20;7.90;;;9.80;99.90;;;;;;4971864;28;20522;-74
2023/10/10 06:15:16;;;;;;;18.77;6.80;;;9.80;99.90;;;;;;4974635;28;20817;-74
2023/10/10 06:17:45;;;;;;;14.40;6.63;;;9.80;99.90;;;;;;4970687;28;20518;-70
2023/10/10 06:20:16;;;;;;;18.40;7.07;;;9.80;99.90;;;;;;4971124;28;20452;-69
2023/10/10 06:22:46;;;;;;;16.70;7.57;;;9.90;99.90;;;;;;4979840;28;20467;-71
2023/10/10 06:25:17;;;;;;;16.67;7.00;;;10.00;99.90;;;;;;4980568;28;20529;-73
2023/10/10 06:27:45;;;;;;;21.30;8.03;;;10.00;99.90;;;;;;4970261;28;20455;-70
2023/10/10 06:30:18;;;;;;;18.20;7.80;;;10.10;99.90;;;;;;4975336;28;20450;-69
2023/10/10 06:32:46;;;;;;;23.17;8.00;;;10.20;99.90;;;;;;4978525;28;20462;-73
2023/10/10 06:35:27;;;;;;;16.50;7.97;;;10.40;99.90;;;;;;4975286;28;20448;-69
2023/10/10 06:37:58;;;;;;;22.40;7.53;;;10.50;99.90;;;;;;4970823;28;20482;-69
2023/10/10 06:40:29;;;;;;;17.93;7.40;;;10.50;99.90;;;;;;4971233;28;20447;-73
2023/10/10 06:42:57;;;;;;;14.17;6.27;;;10.50;99.90;;;;;;4965408;28;20487;-71
2023/10/10 06:45:35;;;;;;;19.57;7.97;;;10.50;99.90;;;;;;4973732;28;20491;-71
2023/10/10 06:48:04;;;;;;;19.30;7.83;;;10.50;99.90;;;;;;4970832;28;20467;-69
2023/10/10 06:50:32;;;;;;;20.17;7.10;;;10.60;99.90;;;;;;4970876;28;20520;-73
2023/10/10 06:53:02;;;;;;;18.90;8.70;;;10.70;99.90;;;;;;4977394;28;20482;-73
2023/10/10 06:55:37;;;;;;;18.73;8.27;;;10.70;99.90;;;;;;4973756;28;20451;-70
2023/10/10 06:58:06;;;;;;;16.97;7.30;;;10.70;99.90;;;;;;4970816;28;20491;-71
2023/10/10 07:00:44;;;;;;;16.47;7.00;;;10.80;99.90;;;;;;4971845;28;20458;-69
2023/10/10 07:03:18;;;;;;;22.10;7.83;;;10.90;99.90;;;;;;4971440;28;20504;-73
2023/10/10 07:05:46;;;;;;;17.40;7.00;;;11.00;99.90;;;;;;4971608;28;20457;-69
2023/10/10 07:08:24;;;;;;;23.73;8.37;;;11.10;99.90;;;;;;4972143;28;20454;-70
2023/10/10 07:10:54;;;;;;;24.43;8.53;;;11.20;99.90;;;;;;4971384;28;20446;-70
2023/10/10 07:13:29;;;;;;;15.60;6.73;;;11.40;99.90;;;;;;4971521;28;20474;-70
2023/10/10 07:15:57;;;;;;;20.97;7.87;;;11.50;99.90;;;;;;4971789;28;20450;-71
2023/10/10 07:18:25;;;;;;;20.80;8.70;;;11.60;99.90;;;;;;4971270;28;20491;-71
2023/10/10 07:21:04;;;;;;;16.60;6.70;;;11.70;99.90;;;;;;4971398;28;20447;-73
2023/10/10 07:23:53;;;;;;;20.20;7.23;;;11.90;99.90;;;;;;4971432;28;20499;-70
2023/10/10 07:26:21;;;;;;;21.73;8.40;;;12.10;99.90;;;;;;4971381;28;20455;-68
2023/10/10 07:28:52;;;;;;;21.80;7.30;;;12.30;99.90;;;;;;4971204;28;20443;-72
2023/10/10 07:31:22;;;;;;;17.83;7.60;;;12.30;99.90;;;;;;4971293;28;20444;-69
2023/10/10 07:34:03;;;;;;;17.80;7.80;;;12.50;99.90;;;;;;4970290;28;20482;-71
2023/10/10 07:36:32;;;;;;;17.57;6.43;;;12.60;99.90;;;;;;4970990;28;20506;-70
2023/10/10 07:41:47;;;;;;;19.70;6.93;;;12.80;99.90;;;;;;4970677;28;20456;-69
2023/10/10 07:44:17;;;;;;;18.20;7.40;;;12.90;99.90;;;;;;4971011;28;20558;-69
2023/10/10 07:47:19;;;;;;;17.90;7.43;;;13.10;99.90;;;;;;4971026;28;20550;-69
2023/10/10 07:49:39;;;;;;;20.83;8.13;;;13.30;99.90;;;;;;4970671;28;20961;-70
2023/10/10 07:52:16;;;;;;;23.83;9.10;;;13.50;99.90;;;;;;4970731;28;20452;-69
2023/10/10 07:54:46;;;;;;;22.80;7.90;;;13.70;99.90;;;;;;4971086;28;20449;-71
2023/10/10 07:57:18;;;;;;;20.30;8.10;;;13.90;99.90;;;;;;4971117;28;20500;-72
2023/10/10 07:59:46;;;;;;;20.37;7.90;;;14.10;99.90;;;;;;4971350;28;20445;-70
2023/10/10 08:02:24;;;;;;;18.05;8.15;;;14.20;99.90;;;;;;4969047;28;20818;-73
2023/10/10 08:04:53;;;;;;;18.00;7.47;;;14.40;99.90;;;;;;4970948;28;20232;-71
2023/10/10 08:07:23;;;;;;;21.53;8.20;;;14.60;99.90;;;;;;4972061;28;20458;-69
2023/10/10 08:10:14;;;;;;;20.80;7.33;;;14.60;99.90;;;;;;4974387;28;20536;-70
2023/10/10 08:12:43;;;;;;;24.30;8.00;;;14.70;99.90;;;;;;4977363;28;20466;-73
2023/10/10 08:15:19;;;;;;;18.00;8.10;;;14.90;99.90;;;;;;4976906;28;20541;-70
2023/10/10 08:17:53;;;;;;;20.40;8.47;;;15.00;99.90;;;;;;4974810;28;20486;-70
2023/10/10 08:23:24;;;;;;;22.80;8.00;;;15.30;99.90;;;;;;4964388;28;20474;-72
2023/10/10 08:25:53;;;;;;;19.47;7.80;;;15.60;99.90;;;;;;4975754;28;20447;-72
2023/10/10 08:28:22;;;;;;;22.50;8.00;;;15.80;99.90;;;;;;4975431;28;20444;-72
2023/10/10 08:30:50;;;;;;;15.90;6.43;;;16.00;99.90;;;;;;4975335;28;20901;-72
2023/10/10 08:33:18;;;;;;;17.23;7.03;;;16.20;99.90;;;;;;4974957;28;21004;-70
2023/10/10 08:35:46;;;;;;;17.60;7.33;;;16.40;99.90;;;;;;4975287;28;21167;-70
2023/10/10 08:38:19;;;;;;;19.97;6.73;;;16.60;99.90;;;;;;4975562;28;20519;-74
2023/10/10 08:40:57;;;;;;;18.83;7.00;;;16.80;99.90;;;;;;4974995;28;20498;-73
2023/10/10 08:43:31;;;;;;;21.00;6.93;;;16.90;99.90;;;;;;4971005;28;21166;-70
2023/10/10 08:46:04;;;;;;;18.70;7.07;;;17.10;99.90;;;;;;4975382;28;20444;-69
2023/10/10 08:48:33;;;;;;;17.37;6.90;;;17.20;99.90;;;;;;4975616;28;20530;-71
2023/10/10 08:51:04;;;;;;;21.97;6.67;;;17.30;99.90;;;;;;4975961;28;20440;-71
2023/10/10 08:53:35;;;;;;;22.23;6.77;;;17.60;99.90;;;;;;4972241;28;20467;-71
2023/10/10 08:56:06;;;;;;;16.90;6.07;;;17.80;99.90;;;;;;4975371;28;20444;-69
2023/10/10 08:58:35;;;;;;;25.10;6.73;;;18.00;99.90;;;;;;4975338;28;20483;-73
2023/10/10 09:01:05;;;;;;;19.63;6.37;;;18.10;99.90;;;;;;4977485;28;20448;-69
2023/10/10 09:03:34;;;;;;;21.57;5.63;;;18.30;99.90;;;;;;4974638;28;20463;-72
2023/10/10 09:06:19;;;;;;;15.93;5.80;;;18.50;99.90;;;;;;4967255;28;20554;-70
2023/10/10 09:08:49;;;;;;;17.20;6.07;;;18.60;99.90;;;;;;4969289;28;20435;-73
2023/10/10 09:11:20;;;;;;;14.90;5.10;;;18.90;99.90;;;;;;4968581;28;20450;-70
2023/10/10 09:13:51;;;;;;;18.37;5.90;;;19.20;99.90;;;;;;4971251;28;20460;-73
2023/10/10 09:16:38;;;;;;;23.10;6.03;;;19.50;99.90;;;;;;4972454;28;20517;-72
2023/10/10 09:19:10;;;;;;;16.60;5.07;;;19.60;99.90;;;;;;4968922;28;20482;-71
2023/10/10 09:21:50;;;;;;;17.00;5.90;;;19.90;99.90;;;;;;4973827;28;20506;-73
2023/10/10 09:24:28;;;;;;;20.90;7.53;;;20.00;99.90;;;;;;4972639;28;20483;-73
2023/10/10 09:27:10;;;;;;;21.03;6.03;;;20.40;99.90;;;;;;4968929;28;20430;-73
2023/10/10 09:29:46;;;;;;;15.33;5.97;;;20.60;99.90;;;;;;4983343;28;20867;-71
2023/10/10 09:32:15;;;;;;;18.20;6.00;;;20.90;99.90;;;;;;4980420;28;20466;-70
2023/10/10 09:34:43;;;;;;;14.50;4.87;;;21.30;99.90;;;;;;4981424;28;20451;-73
2023/10/10 09:37:13;;;;;;;14.33;5.70;;;21.50;99.90;;;;;;4973385;28;20428;-73
2023/10/10 09:39:43;;;;;;;14.20;5.60;;;21.80;99.90;;;;;;4973176;28;20487;-71
2023/10/10 09:42:29;;;;;;;15.97;5.07;;;22.00;99.90;;;;;;4972595;28;20458;-71
2023/10/10 09:47:43;;;;;;;20.53;6.10;;;22.50;99.70;;;;;;4972619;28;20447;-70
2023/10/10 09:50:35;;;;;;;21.33;5.33;;;22.80;99.20;;;;;;4973357;28;20455;-75
2023/10/10 09:53:06;;;;;;;16.37;5.80;;;23.00;98.10;;;;;;4972734;28;20485;-71
2023/10/10 09:55:39;;;;;;;17.67;7.47;;;23.20;96.60;;;;;;4973449;28;20514;-71
2023/10/10 09:58:24;;;;;;;15.57;5.57;;;23.40;97.90;;;;;;4970800;28;20514;-70
2023/10/10 10:00:53;;;;;;;21.63;5.67;;;23.70;94.40;;;;;;4971198;28;20494;-76
2023/10/10 10:03:49;;;;;;;18.90;6.40;;;24.00;95.20;;;;;;4970704;28;20463;-72
2023/10/10 10:06:36;;;;;;;16.60;5.80;;;24.10;92.70;;;;;;4972761;28;20440;-69
2023/10/10 10:09:45;;;;;;;18.07;5.80;;;24.50;89.70;;;;;;4969052;28;20444;-70
2023/10/10 10:12:41;;;;;;;14.17;4.97;;;24.80;90.00;;;;;;4966348;28;20435;-70
2023/10/10 10:15:28;;;;;;;15.40;5.50;;;25.00;85.50;;;;;;4966692;28;21177;-68
2023/10/10 10:18:12;;;;;;;21.40;5.87;;;25.10;83.10;;;;;;4972666;28;20535;-70
2023/10/10 10:20:47;;;;;;;15.27;5.60;;;25.30;81.70;;;;;;4969746;28;20452;-69
2023/10/10 10:23:20;;;;;;;15.13;5.60;;;25.60;79.20;;;;;;4972274;28;20497;-69
2023/10/10 10:26:04;;;;;;;15.43;5.70;;;25.80;75.90;;;;;;4972065;28;20513;-71
2023/10/10 10:28:35;;;;;;;18.67;6.20;;;25.90;75.80;;;;;;4972524;28;20443;-72
2023/10/10 10:31:08;;;;;;;18.13;6.13;;;26.20;70.70;;;;;;4965098;28;20506;-70
2023/10/10 10:33:52;;;;;;;15.97;5.70;;;26.30;72.20;;;;;;4971662;28;20467;-70
2023/10/10 10:36:26;;;;;;;15.43;5.83;;;26.40;70.80;;;;;;4962850;28;20452;-72
2023/10/10 10:41:43;;;;;;;15.17;5.37;;;26.90;64.30;;;;;;4967699;28;20463;-70
2023/10/10 10:44:13;;;;;;;19.20;6.20;;;27.30;65.70;;;;;;4968051;28;20483;-72
2023/10/10 10:46:48;;;;;;;14.13;4.83;;;27.60;63.70;;;;;;4969530;28;20450;-72
2023/10/10 10:49:22;;;;;;;17.77;5.70;;;27.80;65.20;;;;;;4971547;28;20463;-70
2023/10/10 10:52:10;;;;;;;17.53;5.60;;;28.10;62.30;;;;;;4966005;28;20799;-71
2023/10/10 10:54:41;;;;;;;17.13;5.60;;;28.40;58.70;;;;;;4971641;28;20431;-70
2023/10/10 10:57:08;;;;;;;17.07;6.33;;;28.50;59.30;;;;;;4971497;28;20443;-71
2023/10/10 10:59:55;;;;;;;17.30;4.97;;;28.60;60.80;;;;;;4971794;28;20483;-70
2023/10/10 11:02:31;;;;;;;19.13;5.97;;;28.90;61.90;;;;;;4971342;28;20451;-73
2023/10/10 11:04:59;;;;;;;15.37;5.73;;;29.20;59.10;;;;;;4971314;28;20823;-73
2023/10/10 11:07:40;;;;;;;14.17;4.90;;;29.50;55.30;;;;;;4971226;28;20448;-73
2023/10/10 11:10:10;;;;;;;15.30;5.90;;;29.50;56.20;;;;;;4971390;28;20463;-71
2023/10/10 11:12:38;;;;;;;17.67;5.60;;;29.50;53.50;;;;;;4971046;28;20510;-71
2023/10/10 11:15:10;;;;;;;17.60;5.80;;;29.30;52.80;;;;;;4971475;28;20555;-71
2023/10/10 11:17:42;;;;;;;17.43;5.80;;;29.20;54.30;;;;;;4971488;28;20452;-70
2023/10/10 11:23:06;;;;;;;13.40;5.83;;;29.00;53.50;;;;;;4970955;28;20551;-76
2023/10/10 11:25:45;;;;;;;14.60;5.60;;;29.10;53.00;;;;;;4971536;28;20462;-73
2023/10/10 11:28:21;;;;;;;17.13;6.57;;;29.20;53.10;;;;;;4971383;28;20443;-69
2023/10/10 11:30:51;;;;;;;13.57;5.70;;;29.30;51.30;;;;;;4971316;28;20458;-74
2023/10/10 11:33:47;;;;;;;17.97;6.33;;;29.20;53.00;;;;;;4970630;28;20547;-72
2023/10/10 11:36:37;;;;;;;13.00;5.83;;;29.20;51.10;;;;;;4973614;28;20498;-75
2023/10/10 11:39:21;;;;;;;18.00;5.90;;;29.10;53.40;;;;;;4970627;28;20487;-72
2023/10/10 11:41:50;;;;;;;16.63;8.33;;;29.00;49.40;;;;;;4971797;28;20452;-71
2023/10/10 11:44:20;;;;;;;16.03;5.80;;;28.90;50.20;;;;;;4973928;28;20473;-72
2023/10/10 11:46:49;;;;;;;16.70;5.77;;;28.90;50.60;;;;;;4975142;28;20451;-73
2023/10/10 11:49:19;;;;;;;21.40;7.47;;;28.70;50.40;;;;;;4973422;28;20439;-72
2023/10/10 11:51:47;;;;;;;17.20;6.90;;;28.60;50.60;;;;;;4973894;28;20861;-71
2023/10/10 11:54:25;;;;;;;16.63;6.90;;;28.80;49.50;;;;;;4973663;28;20567;-74
2023/10/10 11:56:53;;;;;;;13.80;5.97;;;28.90;50.00;;;;;;4974573;28;20457;-73
2023/10/10 11:59:22;;;;;;;15.57;6.73;;;29.00;52.10;;;;;;4973538;28;20894;-71
2023/10/10 12:01:54;;;;;;;17.00;6.37;;;29.20;51.80;;;;;;4972783;28;21140;-73
2023/10/10 12:04:32;;;;;;;17.13;6.70;;;29.40;51.80;;;;;;4975023;28;20475;-74
2023/10/10 12:07:02;;;;;;;19.43;6.53;;;29.40;51.20;;;;;;4965791;28;20443;-74
2023/10/10 12:09:33;;;;;;;18.53;6.13;;;29.50;50.20;;;;;;4973724;28;20447;-70
2023/10/10 12:12:03;;;;;;;16.33;6.20;;;29.60;49.70;;;;;;4973056;28;20538;-70
2023/10/10 12:14:32;;;;;;;17.50;6.83;;;29.70;47.70;;;;;;4969406;28;20972;-70
2023/10/10 12:17:05;;;;;;;16.20;5.90;;;29.70;47.20;;;;;;4970575;28;20518;-70
2023/10/10 12:19:43;;;;;;;21.97;7.10;;;29.30;45.70;;;;;;4970531;28;20526;-70
2023/10/10 12:22:12;;;;;;;15.57;6.33;;;28.90;45.60;;;;;;4969452;28;21131;-72
2023/10/10 12:24:40;;;;;;;17.90;6.33;;;28.60;46.50;;;;;;4966812;28;20506;-73
2023/10/10 12:27:09;;;;;;;19.00;6.93;;;28.40;47.20;;;;;;4970339;28;21006;-73
2023/10/10 12:29:40;;;;;;;13.87;5.90;;;28.50;47.90;;;;;;4970541;28;20825;-71
2023/10/10 12:32:18;;;;;;;14.20;5.50;;;28.60;48.00;;;;;;4970108;28;20451;-74
2023/10/10 12:34:49;;;;;;;14.70;5.73;;;28.60;43.50;;;;;;4970375;28;20539;-72
2023/10/10 12:37:17;;;;;;;16.70;7.27;;;28.60;44.30;;;;;;4967969;28;20824;-71
2023/10/10 12:39:45;;;;;;;18.07;6.33;;;28.20;43.70;;;;;;4970364;28;20495;-73
2023/10/10 12:42:14;;;;;;;19.97;7.10;;;27.90;45.30;;;;;;4969382;28;20462;-71
2023/10/10 12:44:47;;;;;;;15.83;5.70;;;27.50;46.80;;;;;;4969820;28;20479;-71
2023/10/10 12:47:17;;;;;;;16.70;6.27;;;27.00;47.20;;;;;;4968201;28;20527;-72
2023/10/10 12:49:45;;;;;;;18.00;6.70;;;26.60;49.00;;;;;;4969690;28;21177;-74
2023/10/10 12:52:17;;;;;;;20.00;6.47;;;26.40;50.20;;;;;;4969836;28;20482;-73
2023/10/10 12:54:56;;;;;;;15.83;6.00;;;26.30;48.10;;;;;;4970068;28;20446;-73
2023/10/10 12:57:25;;;;;;;14.70;6.03;;;26.00;50.70;;;;;;4974115;28;20538;-74
2023/10/10 13:00:13;;;;;;;18.63;7.50;;;26.00;52.90;;;;;;4974437;28;20487;-71
2023/10/10 13:02:41;;;;;;;17.87;6.30;;;26.20;52.50;;;;;;4974373;28;20482;-69
2023/10/10 13:05:11;;;;;;;14.40;5.80;;;26.20;52.20;;;;;;4974683;28;20493;-70
2023/10/10 13:07:41;;;;;;;18.00;6.53;;;26.40;53.70;;;;;;4973928;28;20998;-71
2023/10/10 13:10:11;;;;;;;16.20;6.93;;;26.50;55.00;;;;;;4974753;28;20432;-70
2023/10/10 13:12:39;;;;;;;17.50;6.30;;;26.20;51.20;;;;;;4973101;28;20472;-69
2023/10/10 13:15:17;;;;;;;17.13;6.60;;;25.70;53.70;;;;;;4976411;28;20522;-70
2023/10/10 13:17:54;;;;;;;15.73;6.70;;;25.90;55.40;;;;;;4973034;28;20442;-74
2023/10/10 13:20:22;;;;;;;18.63;6.40;;;25.80;52.90;;;;;;4972164;28;20840;-72
2023/10/10 13:22:51;;;;;;;18.00;7.00;;;25.90;55.20;;;;;;4972452;28;20473;-73
2023/10/10 13:25:21;;;;;;;19.43;6.40;;;26.00;53.30;;;;;;4973073;28;20570;-69
2023/10/10 13:27:52;;;;;;;17.43;7.33;;;25.90;54.80;;;;;;4973758;28;20478;-74
2023/10/10 13:30:20;;;;;;;15.80;5.50;;;25.80;52.20;;;;;;4973366;28;20443;-72
2023/10/10 13:32:49;;;;;;;17.37;6.20;;;25.60;52.50;;;;;;4972108;28;20551;-70
2023/10/10 13:35:19;;;;;;;18.23;6.37;;;25.70;53.50;;;;;;4973574;28;20455;-71
2023/10/10 13:37:47;;;;;;;19.07;6.80;;;25.60;52.70;;;;;;4973598;28;20454;-70
2023/10/10 13:40:22;;;;;;;17.23;6.37;;;25.50;53.10;;;;;;4975037;28;20483;-71
2023/10/10 13:42:51;;;;;;;16.93;7.07;;;25.50;53.10;;;;;;4973065;28;20471;-72
2023/10/10 13:45:22;;;;;;;16.20;6.70;;;25.50;52.90;;;;;;4973827;28;20483;-72
2023/10/10 13:47:50;;;;;;;21.57;6.87;;;25.40;53.40;;;;;;4972816;28;20547;-73
2023/10/10 13:50:40;;;;;;;18.10;6.80;;;25.30;53.10;;;;;;4983343;28;20994;-72
2023/10/10 13:53:12;;;;;;;16.30;5.90;;;25.30;52.80;;;;;;4979840;28;20468;-69
2023/10/10 13:55:43;;;;;;;19.00;5.77;;;25.20;53.10;;;;;;4979769;28;20454;-73
2023/10/10 13:58:13;;;;;;;15.03;6.70;;;25.30;53.10;;;;;;4976888;28;20431;-70
2023/10/10 14:00:43;;;;;;;16.33;6.20;;;25.10;53.40;;;;;;4981068;28;21065;-71
2023/10/10 14:03:14;;;;;;;20.00;6.60;;;25.10;53.40;;;;;;4979043;28;20466;-73
2023/10/10 14:06:00;;;;;;;16.30;6.33;;;25.00;53.80;;;;;;4979352;28;21171;-68
2023/10/10 14:08:30;;;;;;;16.33;5.77;;;24.90;53.80;;;;;;4969586;28;20839;-69
2023/10/10 14:11:00;;;;;;;17.57;5.87;;;24.80;53.90;;;;;;4971509;28;20539;-68
2023/10/10 14:13:28;;;;;;;18.60;6.60;;;24.80;54.00;;;;;;4971195;28;20490;-68
2023/10/10 14:15:57;;;;;;;16.17;6.30;;;24.80;54.00;;;;;;4969947;28;20557;-68
2023/10/10 14:18:28;;;;;;;17.53;6.33;;;24.70;53.90;;;;;;4971455;28;21006;-70
2023/10/10 14:21:00;;;;;;;14.67;6.80;;;24.60;54.50;;;;;;4968533;28;20562;-66
2023/10/10 14:23:35;;;;;;;17.77;6.63;;;24.40;55.50;;;;;;4970046;28;20491;-68
2023/10/10 14:26:12;;;;;;;17.60;6.47;;;24.40;54.70;;;;;;4976768;28;20439;-71
2023/10/10 14:28:42;;;;;;;15.67;6.53;;;24.30;54.80;;;;;;4972004;28;20534;-67
2023/10/10 14:31:12;;;;;;;18.60;6.07;;;24.30;55.10;;;;;;4974124;28;20440;-71
2023/10/10 14:33:40;;;;;;;17.47;6.37;;;24.30;54.10;;;;;;4976295;28;20464;-70
2023/10/10 14:36:12;;;;;;;21.00;6.90;;;24.40;54.70;;;;;;4975211;28;20959;-70
2023/10/10 14:38:44;;;;;;;18.37;6.50;;;24.50;54.90;;;;;;4971273;28;20451;-72
2023/10/10 14:41:16;;;;;;;17.70;6.10;;;24.50;55.00;;;;;;4971096;28;20848;-70
2023/10/10 14:43:47;;;;;;;20.90;7.47;;;24.50;55.40;;;;;;4971855;28;20550;-72
2023/10/10 14:46:21;;;;;;;15.47;6.43;;;24.50;54.90;;;;;;4972012;28;20448;-69
2023/10/10 14:48:51;;;;;;;16.93;6.50;;;24.40;55.40;;;;;;4972189;28;20451;-69
2023/10/10 14:51:19;;;;;;;16.80;7.07;;;24.30;55.70;;;;;;4971982;28;20448;-68
2023/10/10 14:53:51;;;;;;;17.50;7.43;;;24.30;56.20;;;;;;4971385;28;20479;-69
2023/10/10 14:56:33;;;;;;;22.10;8.33;;;24.20;56.40;;;;;;4969888;28;20451;-73
2023/10/10 14:59:03;;;;;;;17.80;5.87;;;24.20;56.10;;;;;;4969901;28;21119;-70
2023/10/10 15:01:34;;;;;;;17.53;6.20;;;24.10;56.50;;;;;;4970490;28;20487;-67
2023/10/10 15:04:04;;;;;;;20.60;6.67;;;24.00;57.20;;;;;;4970007;28;20474;-71
2023/10/10 15:06:33;;;;;;;23.53;7.00;;;24.00;56.80;;;;;;4968014;28;21139;-72
2023/10/10 15:09:01;;;;;;;22.57;7.30;;;23.90;56.30;;;;;;4968618;28;20894;-70
2023/10/10 15:11:30;;;;;;;24.80;7.93;;;23.70;56.60;;;;;;4966284;28;20450;-73
2023/10/10 15:13:59;;;;;;;28.53;9.87;;;23.60;57.40;;;;;;4971985;28;20469;-70